createdAt,value
2022-12-09T00:01:50.525Z,59.72
2022-12-09T00:04:18.846Z,60.08
2022-12-09T00:06:48.561Z,60.65
2022-12-09T00:09:17.187Z,56.38
2022-12-09T00:11:45.836Z,56.08
2022-12-09T00:14:14.051Z,61.35
2022-12-09T00:16:42.589Z,58.65
2022-12-09T00:19:14.037Z,57.90
2022-12-09T00:21:43.577Z,55.08
2022-12-09T00:24:13.348Z,53.92
2022-12-09T00:26:42.514Z,54.30
2022-12-09T00:29:11.786Z,55.25
2022-12-09T00:31:40.270Z,56.72
2022-12-09T00:34:12.654Z,60.80
2022-12-09T00:36:41.789Z,64.78
2022-12-09T00:39:12.756Z,56.78
2022-12-09T00:41:41.456Z,58.63
2022-12-09T00:44:10.483Z,57.17
2022-12-09T00:46:39.302Z,52.72
2022-12-09T00:49:07.464Z,59.13
2022-12-09T00:51:35.821Z,59.30
2022-12-09T00:54:04.191Z,55.08
2022-12-09T00:56:32.751Z,58.50
2022-12-09T00:59:01.288Z,60.40
2022-12-09T01:01:31.244Z,57.58
2022-12-09T01:03:59.772Z,53.13
2022-12-09T01:06:28.709Z,55.13
2022-12-09T01:08:56.815Z,53.53
2022-12-09T01:11:28.389Z,55.88
2022-12-09T01:14:01.448Z,55.90
2022-12-09T01:16:33.360Z,55.97
2022-12-09T01:19:07.520Z,54.38
2022-12-09T01:21:36.734Z,53.38
2022-12-09T01:24:11.603Z,53.45
2022-12-09T01:26:41.192Z,54.08
2022-12-09T01:29:09.788Z,50.88
2022-12-09T01:31:38.354Z,53.63
2022-12-09T01:34:06.464Z,52.60
2022-12-09T01:36:35.019Z,53.00
2022-12-09T01:39:05.698Z,55.93
2022-12-09T01:41:35.151Z,54.22
2022-12-09T01:44:23.697Z,60.25
2022-12-09T01:46:58.182Z,51.08
2022-12-09T01:49:34.989Z,53.10
2022-12-09T01:52:19.157Z,51.72
2022-12-09T01:55:10.264Z,50.80
2022-12-09T01:57:39.231Z,49.25
2022-12-09T02:00:08.429Z,50.28
2022-12-09T02:02:47.167Z,55.72
2022-12-09T02:05:19.932Z,49.10
2022-12-09T02:07:54.234Z,54.83
2022-12-09T02:10:23.206Z,48.28
2022-12-09T02:13:24.174Z,51.85
2022-12-09T02:15:56.688Z,50.90
2022-12-09T02:18:57.849Z,50.38
2022-12-09T02:21:48.906Z,48.28
2022-12-09T02:24:25.200Z,51.05
2022-12-09T02:27:08.331Z,54.83
2022-12-09T02:30:05.756Z,51.42
2022-12-09T02:33:03.061Z,51.42
2022-12-09T02:35:42.203Z,50.88
2022-12-09T02:38:17.005Z,49.55
2022-12-09T02:41:29.839Z,49.90
2022-12-09T02:44:12.454Z,50.35
2022-12-09T02:49:13.552Z,58.15
2022-12-09T02:51:44.819Z,53.97
2022-12-09T02:54:19.536Z,47.67
2022-12-09T02:57:01.455Z,53.20
2022-12-09T02:59:30.910Z,52.08
2022-12-09T03:02:14.584Z,52.10
2022-12-09T03:04:48.179Z,56.90
2022-12-09T03:07:51.274Z,57.90
2022-12-09T03:10:33.790Z,53.60
2022-12-09T03:13:11.257Z,56.33
2022-12-09T03:15:44.344Z,50.90
2022-12-09T03:18:17.641Z,47.97
2022-12-09T03:20:47.942Z,58.22
2022-12-09T03:23:18.487Z,53.25
2022-12-09T03:25:51.073Z,48.92
2022-12-09T03:28:36.756Z,59.30
2022-12-09T03:31:10.759Z,58.22
2022-12-09T03:33:41.820Z,54.50
2022-12-09T03:36:21.363Z,55.42
2022-12-09T03:38:53.770Z,54.88
2022-12-09T03:41:33.302Z,58.90
2022-12-09T03:44:17.158Z,53.75
2022-12-09T03:46:45.954Z,61.05
2022-12-09T03:49:14.819Z,60.22
2022-12-09T03:51:55.841Z,66.18
2022-12-09T03:54:35.476Z,62.28
2022-12-09T03:57:04.746Z,58.88
2022-12-09T03:59:35.845Z,56.63
2022-12-09T04:02:07.181Z,58.45
2022-12-09T04:04:40.461Z,51.72
2022-12-09T04:07:09.537Z,54.55
2022-12-09T04:09:43.100Z,62.50
2022-12-09T04:12:11.727Z,57.88
2022-12-09T04:14:41.027Z,57.13
2022-12-09T04:17:10.391Z,60.65
2022-12-09T04:19:38.947Z,60.78
2022-12-09T04:22:07.212Z,54.95
2022-12-09T04:24:35.685Z,54.03
2022-12-09T04:27:04.220Z,53.45
2022-12-09T04:29:32.666Z,61.42
2022-12-09T04:32:00.758Z,65.53
2022-12-09T04:34:30.284Z,63.80
2022-12-09T04:36:58.280Z,62.30
2022-12-09T04:39:26.676Z,92.93
2022-12-09T04:41:54.601Z,87.20
2022-12-09T04:44:23.279Z,72.57
2022-12-09T04:46:51.334Z,71.97
2022-12-09T04:49:19.849Z,85.82
2022-12-09T04:51:48.493Z,75.93
2022-12-09T04:54:17.280Z,77.93
2022-12-09T04:56:45.589Z,81.55
2022-12-09T04:59:15.490Z,87.13
2022-12-09T05:01:43.670Z,102.57
2022-12-09T05:04:12.364Z,110.97
2022-12-09T05:06:40.857Z,125.18
2022-12-09T05:09:13.422Z,122.05
2022-12-09T05:11:42.116Z,98.07
2022-12-09T05:14:10.816Z,90.88
2022-12-09T05:16:39.292Z,79.32
2022-12-09T05:19:07.845Z,74.63
2022-12-09T05:21:36.871Z,75.70
2022-12-09T05:24:06.297Z,68.82
2022-12-09T05:26:35.037Z,94.07
2022-12-09T05:29:04.306Z,81.22
2022-12-09T05:31:32.701Z,89.75
2022-12-09T05:34:01.408Z,88.95
2022-12-09T05:36:29.744Z,83.10
2022-12-09T05:38:58.498Z,82.15
2022-12-09T05:41:26.757Z,85.75
2022-12-09T05:43:55.476Z,85.15
2022-12-09T05:46:23.722Z,70.47
2022-12-09T05:48:53.130Z,79.03
2022-12-09T05:51:29.946Z,77.97
2022-12-09T05:54:02.211Z,91.13
2022-12-09T05:56:31.012Z,89.72
2022-12-09T05:59:00.261Z,79.20
2022-12-09T06:01:28.658Z,83.90
2022-12-09T06:04:18.123Z,84.45
2022-12-09T06:06:46.955Z,78.45
2022-12-09T06:09:16.055Z,84.22
2022-12-09T06:11:44.386Z,77.05
2022-12-09T06:14:13.253Z,86.45
2022-12-09T06:16:41.578Z,87.20
2022-12-09T06:19:15.374Z,82.88
2022-12-09T06:21:43.717Z,95.63
2022-12-09T06:24:12.448Z,104.35
2022-12-09T06:26:41.140Z,139.90
2022-12-09T06:29:13.405Z,171.70
2022-12-09T06:31:42.044Z,151.98
2022-12-09T06:34:11.162Z,141.88
2022-12-09T06:36:39.860Z,112.00
2022-12-09T06:39:11.109Z,124.05
2022-12-09T06:41:42.364Z,136.80
2022-12-09T06:44:19.745Z,138.98
2022-12-09T06:46:52.946Z,130.45
2022-12-09T06:49:23.198Z,103.85
2022-12-09T06:51:51.445Z,103.75
2022-12-09T06:54:20.107Z,99.95
2022-12-09T06:56:48.583Z,102.03
2022-12-09T06:59:17.583Z,123.47
2022-12-09T07:01:46.769Z,152.52
2022-12-09T07:04:16.016Z,156.35
2022-12-09T07:06:46.121Z,167.13
2022-12-09T07:09:20.954Z,186.93
2022-12-09T07:11:50.336Z,193.93
2022-12-09T07:14:19.523Z,170.75
2022-12-09T07:16:48.578Z,159.18
2022-12-09T07:19:20.203Z,140.65
2022-12-09T07:21:49.477Z,128.43
2022-12-09T07:24:19.369Z,116.30
2022-12-09T07:26:56.836Z,102.63
2022-12-09T07:29:25.313Z,109.93
2022-12-09T07:31:53.560Z,104.07
2022-12-09T07:34:22.566Z,109.35
2022-12-09T07:36:50.781Z,134.35
2022-12-09T07:39:20.569Z,123.07
2022-12-09T07:41:54.484Z,125.78
2022-12-09T07:44:24.167Z,150.35
2022-12-09T07:46:52.274Z,139.40
2022-12-09T07:49:21.728Z,143.02
2022-12-09T07:51:50.844Z,129.68
2022-12-09T07:54:20.535Z,123.60
2022-12-09T07:56:48.959Z,124.43
2022-12-09T07:59:17.826Z,125.85
2022-12-09T08:01:52.293Z,120.30
2022-12-09T08:04:20.884Z,118.38
2022-12-09T08:06:49.300Z,122.35
2022-12-09T08:09:19.389Z,111.63
2022-12-09T08:11:47.784Z,105.63
2022-12-09T08:14:16.397Z,119.45
2022-12-09T08:16:44.734Z,96.43
2022-12-09T08:19:13.961Z,83.70
2022-12-09T08:21:43.323Z,78.00
2022-12-09T08:24:13.606Z,71.97
2022-12-09T08:26:42.357Z,63.60
2022-12-09T08:29:21.023Z,91.78
2022-12-09T08:31:56.029Z,80.05
2022-12-09T08:34:24.807Z,65.50
2022-12-09T08:36:56.997Z,64.00
2022-12-09T08:39:29.019Z,73.57
2022-12-09T08:41:57.072Z,93.60
2022-12-09T08:44:28.494Z,104.60
2022-12-09T08:47:01.166Z,101.68
2022-12-09T08:49:30.021Z,99.22
2022-12-09T08:51:58.395Z,94.53
2022-12-09T08:54:26.955Z,82.80
2022-12-09T08:56:56.422Z,89.55
2022-12-09T08:59:25.642Z,107.65
2022-12-09T09:01:54.757Z,151.48
2022-12-09T09:04:24.182Z,115.60
2022-12-09T09:06:53.481Z,123.85
2022-12-09T09:09:23.360Z,112.95
2022-12-09T09:11:52.060Z,98.78
2022-12-09T09:14:21.269Z,86.43
2022-12-09T09:16:50.391Z,91.05
2022-12-09T09:19:22.878Z,85.18
2022-12-09T09:21:51.895Z,98.75
2022-12-09T09:24:23.841Z,94.22
2022-12-09T09:26:53.227Z,89.10
2022-12-09T09:29:24.771Z,103.75
2022-12-09T09:31:56.527Z,88.03
2022-12-09T09:34:34.439Z,89.97
2022-12-09T09:37:03.012Z,91.28
2022-12-09T09:39:31.431Z,91.85
2022-12-09T09:42:08.661Z,90.43
2022-12-09T09:44:41.334Z,91.22
2022-12-09T09:47:31.616Z,84.35
2022-12-09T09:50:14.604Z,91.75
2022-12-09T09:52:46.758Z,83.97
2022-12-09T09:59:46.138Z,77.57
2022-12-09T10:02:42.702Z,82.50
2022-12-09T10:09:14.296Z,75.47
2022-12-09T10:12:25.141Z,83.72
2022-12-09T10:23:14.847Z,81.18
2022-12-09T10:25:57.392Z,59.40
2022-12-09T10:28:39.819Z,87.65
2022-12-09T10:31:11.076Z,83.38
2022-12-09T10:33:41.971Z,85.03
2022-12-09T10:36:32.170Z,99.20
2022-12-09T10:39:10.427Z,84.72
2022-12-09T10:45:23.824Z,106.20
2022-12-09T11:22:44.443Z,96.20
2022-12-09T12:23:17.608Z,85.70
2022-12-09T12:26:04.560Z,93.38
2022-12-09T12:28:40.796Z,93.25
2022-12-09T12:31:34.218Z,102.25
2022-12-09T12:37:57.990Z,98.38
2022-12-09T12:40:36.068Z,104.30
2022-12-09T12:44:19.873Z,103.95
2022-12-09T12:46:59.726Z,86.20
2022-12-09T12:50:03.504Z,88.20
2022-12-09T12:52:58.011Z,188.38
2022-12-09T12:55:39.036Z,96.70
2022-12-09T12:58:19.885Z,97.47
2022-12-09T13:01:13.556Z,108.25
2022-12-09T13:04:15.590Z,105.90
2022-12-09T13:06:57.577Z,110.20
2022-12-09T13:09:50.200Z,110.97
2022-12-09T13:12:53.626Z,113.15
2022-12-09T13:15:28.126Z,138.85
2022-12-09T13:18:37.000Z,147.80
2022-12-09T13:21:06.957Z,171.65
2022-12-09T13:23:47.250Z,185.80
2022-12-09T13:26:25.248Z,189.73
2022-12-09T13:29:30.346Z,172.05
2022-12-09T13:32:22.671Z,190.52
2022-12-09T13:34:54.989Z,182.43
2022-12-09T13:37:38.330Z,171.75
2022-12-09T13:40:28.004Z,146.65
2022-12-09T13:43:04.504Z,158.18
2022-12-09T13:45:44.144Z,151.00
2022-12-09T13:48:16.812Z,187.88
2022-12-09T13:51:00.768Z,169.57
2022-12-09T13:54:01.874Z,194.88
2022-12-09T13:56:39.597Z,164.13
2022-12-09T13:59:23.079Z,206.40
2022-12-09T14:02:32.377Z,192.60
2022-12-09T14:05:32.315Z,183.98
2022-12-09T14:08:25.991Z,164.15
2022-12-09T14:10:58.730Z,162.90
2022-12-09T14:16:30.998Z,166.45
2022-12-09T14:19:31.892Z,162.13
2022-12-09T14:22:23.364Z,161.43
2022-12-09T14:24:59.499Z,172.85
2022-12-09T14:27:50.930Z,175.27
2022-12-09T14:30:50.394Z,143.18
2022-12-09T14:33:29.341Z,165.45
2022-12-09T14:36:29.727Z,147.60
2022-12-09T14:42:04.438Z,178.05
2022-12-09T14:44:42.210Z,198.65
2022-12-09T14:47:32.726Z,183.77
2022-12-09T14:50:13.974Z,199.68
2022-12-09T14:52:59.334Z,160.90
2022-12-09T14:55:33.568Z,168.93
2022-12-09T14:58:05.977Z,168.13
2022-12-09T15:00:41.017Z,143.73
2022-12-09T15:03:45.252Z,157.98
2022-12-09T15:06:17.907Z,157.80
2022-12-09T15:08:51.243Z,178.30
2022-12-09T15:11:23.864Z,203.55
2022-12-09T15:13:54.902Z,188.88
2022-12-09T15:16:26.491Z,184.43
2022-12-09T15:18:55.266Z,210.50
2022-12-09T15:21:28.450Z,196.25
2022-12-09T15:23:58.710Z,205.93
2022-12-09T15:26:29.625Z,197.30
2022-12-09T15:29:05.414Z,172.68
2022-12-09T15:31:34.705Z,166.20
2022-12-09T15:34:20.428Z,164.73
2022-12-09T15:37:13.204Z,185.77
2022-12-09T15:40:09.082Z,180.75
2022-12-09T15:42:41.528Z,172.27
2022-12-09T15:45:14.408Z,183.90
2022-12-09T15:47:56.881Z,172.00
2022-12-09T15:50:30.711Z,177.40
2022-12-09T15:53:09.216Z,167.57
2022-12-09T15:55:51.962Z,201.45
2022-12-09T15:58:24.937Z,189.98
2022-12-09T16:00:55.131Z,162.25
2022-12-09T16:03:30.063Z,154.55
2022-12-09T16:06:01.638Z,153.77
2022-12-09T16:08:39.621Z,167.00
2022-12-09T16:11:08.045Z,211.07
2022-12-09T16:13:36.419Z,212.40
2022-12-09T16:16:27.049Z,190.30
2022-12-09T16:18:56.453Z,205.48
2022-12-09T16:21:32.337Z,192.15
2022-12-09T16:24:10.442Z,165.75
2022-12-09T16:26:44.460Z,161.95
2022-12-09T16:29:36.647Z,151.52
2022-12-09T16:32:31.748Z,152.88
2022-12-09T16:35:14.662Z,157.82
2022-12-09T16:38:03.643Z,173.20
2022-12-09T16:40:32.845Z,156.30
2022-12-09T16:43:16.468Z,156.10
2022-12-09T16:45:53.668Z,152.68
2022-12-09T16:48:23.901Z,150.82
2022-12-09T16:51:17.809Z,154.85
2022-12-09T16:53:48.804Z,146.95
2022-12-09T16:56:21.711Z,143.63
2022-12-09T16:58:50.097Z,145.00
2022-12-09T17:01:20.044Z,142.90
2022-12-09T17:04:05.170Z,150.40
2022-12-09T17:06:33.050Z,158.77
2022-12-09T17:09:01.214Z,169.05
2022-12-09T17:11:29.120Z,482.17
2022-12-09T17:13:57.268Z,613.67
2022-12-09T17:16:26.996Z,207.93
2022-12-09T17:18:57.767Z,179.30
2022-12-09T17:21:25.845Z,167.82
2022-12-09T17:23:54.267Z,132.15
2022-12-09T17:26:22.160Z,147.15
2022-12-09T17:28:50.959Z,157.48
2022-12-09T17:31:21.779Z,118.55
2022-12-09T17:33:52.992Z,114.90
2022-12-09T17:36:20.855Z,163.88
2022-12-09T17:38:49.269Z,153.82
2022-12-09T17:41:19.312Z,130.77
2022-12-09T17:43:47.710Z,123.35
2022-12-09T17:46:16.011Z,150.82
2022-12-09T17:48:47.398Z,137.70
2022-12-09T17:51:20.640Z,124.50
2022-12-09T17:56:23.968Z,163.13
2022-12-09T17:58:58.060Z,155.85
2022-12-09T18:01:27.687Z,137.93
2022-12-09T18:04:04.678Z,128.65
2022-12-09T18:06:44.520Z,130.02
2022-12-09T18:09:16.195Z,131.00
2022-12-09T18:11:44.806Z,138.63
2022-12-09T18:14:13.264Z,132.02
2022-12-09T18:16:41.323Z,132.18
2022-12-09T18:19:15.417Z,172.07
2022-12-09T18:21:44.374Z,139.55
2022-12-09T18:24:21.885Z,145.90
2022-12-09T18:26:49.925Z,173.07
2022-12-09T18:29:18.643Z,158.35
2022-12-09T18:31:49.589Z,133.57
2022-12-09T18:34:20.855Z,121.53
2022-12-09T18:36:48.676Z,174.52
2022-12-09T18:39:17.061Z,223.75
2022-12-09T18:41:48.809Z,229.73
2022-12-09T18:44:17.406Z,247.82
2022-12-09T18:46:47.973Z,184.65
2022-12-09T18:49:22.529Z,153.85
2022-12-09T18:51:52.466Z,142.32
2022-12-09T18:54:35.458Z,132.52
2022-12-09T18:57:04.099Z,122.90
2022-12-09T18:59:32.453Z,114.57
2022-12-09T19:02:00.234Z,136.65
2022-12-09T19:04:29.648Z,180.60
2022-12-09T19:07:00.276Z,244.80
2022-12-09T19:09:33.626Z,333.33
2022-12-09T19:12:23.029Z,250.55
2022-12-09T19:14:51.353Z,162.32
2022-12-09T19:17:19.173Z,181.23
2022-12-09T19:19:48.654Z,174.48
2022-12-09T19:22:16.422Z,122.65
2022-12-09T19:24:44.723Z,138.63
2022-12-09T19:27:13.595Z,126.07
2022-12-09T19:29:41.648Z,116.82
2022-12-09T19:32:36.381Z,128.23
2022-12-09T19:35:00.266Z,124.45
2022-12-09T19:37:28.127Z,129.40
2022-12-09T19:39:56.405Z,124.72
2022-12-09T19:42:24.255Z,120.32
2022-12-09T19:45:01.363Z,92.43
2022-12-09T19:47:30.197Z,98.80
2022-12-09T19:49:58.393Z,99.32
2022-12-09T19:52:29.195Z,106.38
2022-12-09T19:54:57.349Z,105.85
2022-12-09T19:57:25.608Z,116.20
2022-12-09T19:59:53.824Z,131.27
2022-12-09T20:02:21.759Z,104.38
2022-12-09T20:04:51.019Z,101.97
2022-12-09T20:07:20.280Z,97.07
2022-12-09T20:09:48.764Z,98.43
2022-12-09T20:12:17.609Z,100.82
2022-12-09T20:14:46.895Z,111.82
2022-12-09T20:17:16.837Z,112.25
2022-12-09T20:19:45.066Z,121.50
2022-12-09T20:22:12.958Z,118.05
2022-12-09T20:24:41.300Z,128.93
2022-12-09T20:27:09.149Z,135.00
2022-12-09T20:29:38.333Z,137.68
2022-12-09T20:32:08.568Z,140.50
2022-12-09T20:34:36.948Z,138.90
2022-12-09T20:37:05.154Z,137.95
2022-12-09T20:39:33.462Z,127.32
2022-12-09T20:42:03.449Z,128.77
2022-12-09T20:44:32.757Z,119.15
2022-12-09T20:47:00.487Z,138.77
2022-12-09T20:49:30.024Z,123.22
2022-12-09T20:55:14.705Z,118.18
2022-12-09T20:57:51.168Z,135.70
2022-12-09T21:00:19.483Z,117.85
2022-12-09T21:02:47.677Z,129.43
2022-12-09T21:05:16.214Z,125.57
2022-12-09T21:07:44.074Z,125.82
2022-12-09T21:10:21.748Z,120.25
2022-12-09T21:12:50.735Z,128.45
2022-12-09T21:15:20.663Z,121.13
2022-12-09T21:17:50.986Z,131.13
2022-12-09T21:20:19.208Z,125.78
2022-12-09T21:22:59.346Z,132.95
2022-12-09T21:25:35.197Z,129.30
2022-12-09T21:28:03.180Z,133.35
2022-12-09T21:30:31.478Z,143.15
2022-12-09T21:33:04.550Z,129.45
2022-12-09T21:35:32.893Z,128.48
2022-12-09T21:38:13.026Z,132.13
2022-12-09T21:40:41.587Z,153.02
2022-12-09T21:43:09.326Z,149.13
2022-12-09T21:45:40.760Z,131.60
2022-12-09T21:48:08.544Z,153.13
2022-12-09T21:50:36.705Z,124.88
2022-12-09T21:53:04.508Z,137.73
2022-12-09T21:55:34.101Z,135.52
2022-12-09T21:58:01.887Z,124.82
2022-12-09T22:00:30.110Z,126.10
2022-12-09T22:02:57.908Z,121.07
2022-12-09T22:05:26.431Z,124.45
2022-12-09T22:07:54.493Z,119.20
2022-12-09T22:10:22.626Z,132.80
2022-12-09T22:12:50.457Z,142.35
2022-12-09T22:18:02.942Z,123.47
2022-12-09T22:23:18.845Z,121.60
2022-12-09T22:25:47.058Z,126.30
2022-12-09T22:28:14.915Z,123.57
2022-12-09T22:30:43.220Z,125.25
2022-12-09T22:33:11.325Z,128.00
2022-12-09T22:35:39.424Z,121.35
2022-12-09T22:38:14.126Z,128.27
2022-12-09T22:40:42.848Z,120.38
2022-12-09T22:43:11.723Z,132.05
2022-12-09T22:45:39.801Z,134.63
2022-12-09T22:48:07.535Z,130.30
2022-12-09T22:50:36.525Z,129.52
2022-12-09T22:53:04.335Z,119.47
2022-12-09T22:55:32.496Z,120.13
2022-12-09T22:58:00.719Z,125.18
2022-12-09T23:00:28.849Z,121.50
2022-12-09T23:02:59.486Z,126.68
2022-12-09T23:08:03.587Z,121.60
2022-12-09T23:10:32.888Z,121.03
2022-12-09T23:13:03.596Z,133.18
2022-12-09T23:15:33.067Z,129.10
2022-12-09T23:18:01.675Z,131.88
2022-12-09T23:20:48.356Z,129.60
2022-12-09T23:23:16.172Z,124.75
2022-12-09T23:25:46.573Z,125.47
2022-12-09T23:28:14.393Z,122.07
2022-12-09T23:30:42.583Z,117.00
2022-12-09T23:33:10.452Z,124.03
2022-12-09T23:35:39.208Z,115.55
2022-12-09T23:38:07.086Z,118.30
2022-12-09T23:40:35.223Z,120.22
2022-12-09T23:43:09.390Z,117.82
2022-12-09T23:45:38.022Z,108.35
2022-12-09T23:48:06.253Z,117.43
2022-12-09T23:50:34.567Z,118.30
2022-12-09T23:53:02.375Z,114.32
2022-12-09T23:55:30.651Z,115.88
2022-12-09T23:57:58.514Z,113.25
